sensor_id;sensor_type;location;lat;lon;timestamp;temperature;humidity
39621;DHT22;25309;48.686;9.170;2023-07-13T00:01:39;19.70;99.90
39621;DHT22;25309;48.686;9.170;2023-07-13T00:04:06;19.70;99.90
39621;DHT22;25309;48.686;9.170;2023-07-13T00:06:35;19.70;99.90
39621;DHT22;25309;48.686;9.170;2023-07-13T00:09:02;19.60;99.90
39621;DHT22;25309;48.686;9.170;2023-07-13T00:11:29;19.60;99.90
39621;DHT22;25309;48.686;9.170;2023-07-13T00:13:56;19.50;99.90
39621;DHT22;25309;48.686;9.170;2023-07-13T00:16:23;19.50;99.90
39621;DHT22;25309;48.686;9.170;2023-07-13T00:18:50;19.50;99.90
39621;DHT22;25309;48.686;9.170;2023-07-13T00:21:19;19.40;99.90
39621;DHT22;25309;48.686;9.170;2023-07-13T00:23:48;19.40;99.90
39621;DHT22;25309;48.686;9.170;2023-07-13T00:26:15;19.40;99.90
39621;DHT22;25309;48.686;9.170;2023-07-13T00:28:44;19.40;99.90
39621;DHT22;25309;48.686;9.170;2023-07-13T00:31:12;19.30;99.90
39621;DHT22;25309;48.686;9.170;2023-07-13T00:33:41;19.30;99.90
39621;DHT22;25309;48.686;9.170;2023-07-13T00:36:09;19.20;99.90
39621;DHT22;25309;48.686;9.170;2023-07-13T00:38:37;19.30;99.90
39621;DHT22;25309;48.686;9.170;2023-07-13T00:41:06;19.20;99.90
39621;DHT22;25309;48.686;9.170;2023-07-13T00:43:33;19.20;99.90
39621;DHT22;25309;48.686;9.170;2023-07-13T00:46:17;19.10;99.90
39621;DHT22;25309;48.686;9.170;2023-07-13T00:48:45;19.10;99.90
39621;DHT22;25309;48.686;9.170;2023-07-13T00:51:15;19.10;99.90
39621;DHT22;25309;48.686;9.170;2023-07-13T00:53:43;19.10;99.90
39621;DHT22;25309;48.686;9.170;2023-07-13T00:56:12;19.00;99.90
39621;DHT22;25309;48.686;9.170;2023-07-13T00:58:40;19.00;99.90
39621;DHT22;25309;48.686;9.170;2023-07-13T01:01:07;18.90;99.90
39621;DHT22;25309;48.686;9.170;2023-07-13T01:03:34;18.90;99.90
39621;DHT22;25309;48.686;9.170;2023-07-13T01:06:02;18.90;99.90
39621;DHT22;25309;48.686;9.170;2023-07-13T01:08:29;18.80;99.90
39621;DHT22;25309;48.686;9.170;2023-07-13T01:10:58;18.80;99.90
39621;DHT22;25309;48.686;9.170;2023-07-13T01:13:26;18.80;99.90
39621;DHT22;25309;48.686;9.170;2023-07-13T01:15:56;18.70;99.90
39621;DHT22;25309;48.686;9.170;2023-07-13T01:18:26;18.80;99.90
39621;DHT22;25309;48.686;9.170;2023-07-13T01:20:57;18.70;99.90
39621;DHT22;25309;48.686;9.170;2023-07-13T01:23:25;18.70;99.90
39621;DHT22;25309;48.686;9.170;2023-07-13T01:25:52;18.70;99.90
39621;DHT22;25309;48.686;9.170;2023-07-13T01:28:20;18.60;99.90
39621;DHT22;25309;48.686;9.170;2023-07-13T01:30:47;18.70;99.90
39621;DHT22;25309;48.686;9.170;2023-07-13T01:33:17;18.70;99.90
39621;DHT22;25309;48.686;9.170;2023-07-13T01:35:45;18.70;99.90
39621;DHT22;25309;48.686;9.170;2023-07-13T01:38:15;18.70;99.90
39621;DHT22;25309;48.686;9.170;2023-07-13T01:40:42;18.70;99.90
39621;DHT22;25309;48.686;9.170;2023-07-13T01:43:10;18.60;99.90
39621;DHT22;25309;48.686;9.170;2023-07-13T01:45:37;18.60;99.90
39621;DHT22;25309;48.686;9.170;2023-07-13T01:48:05;18.50;99.90
39621;DHT22;25309;48.686;9.170;2023-07-13T01:50:34;18.50;99.90
39621;DHT22;25309;48.686;9.170;2023-07-13T01:53:01;18.50;99.90
39621;DHT22;25309;48.686;9.170;2023-07-13T01:55:33;18.40;99.90
39621;DHT22;25309;48.686;9.170;2023-07-13T01:58:02;18.40;99.90
39621;DHT22;25309;48.686;9.170;2023-07-13T02:00:29;18.30;99.90
39621;DHT22;25309;48.686;9.170;2023-07-13T02:02:56;18.30;99.90
39621;DHT22;25309;48.686;9.170;2023-07-13T02:05:24;18.20;99.90
39621;DHT22;25309;48.686;9.170;2023-07-13T02:07:51;18.20;99.90
39621;DHT22;25309;48.686;9.170;2023-07-13T02:10:19;18.00;99.90
39621;DHT22;25309;48.686;9.170;2023-07-13T02:12:48;18.00;99.90
39621;DHT22;25309;48.686;9.170;2023-07-13T02:15:17;17.90;99.90
39621;DHT22;25309;48.686;9.170;2023-07-13T02:17:44;17.90;99.90
39621;DHT22;25309;48.686;9.170;2023-07-13T02:20:11;17.90;99.90
39621;DHT22;25309;48.686;9.170;2023-07-13T02:22:38;17.90;99.90
39621;DHT22;25309;48.686;9.170;2023-07-13T02:25:06;17.80;99.90
39621;DHT22;25309;48.686;9.170;2023-07-13T02:27:33;17.80;99.90
39621;DHT22;25309;48.686;9.170;2023-07-13T02:30:01;17.80;99.90
39621;DHT22;25309;48.686;9.170;2023-07-13T02:32:29;17.80;99.90
39621;DHT22;25309;48.686;9.170;2023-07-13T02:34:56;17.80;99.90
39621;DHT22;25309;48.686;9.170;2023-07-13T02:37:23;17.70;99.90
39621;DHT22;25309;48.686;9.170;2023-07-13T02:39:50;17.70;99.90
39621;DHT22;25309;48.686;9.170;2023-07-13T02:42:17;17.60;99.90
39621;DHT22;25309;48.686;9.170;2023-07-13T02:44:44;17.60;99.90
39621;DHT22;25309;48.686;9.170;2023-07-13T02:47:13;17.60;99.90
39621;DHT22;25309;48.686;9.170;2023-07-13T02:49:40;17.50;99.90
39621;DHT22;25309;48.686;9.170;2023-07-13T02:52:07;17.50;99.90
39621;DHT22;25309;48.686;9.170;2023-07-13T02:54:34;17.50;99.90
39621;DHT22;25309;48.686;9.170;2023-07-13T02:57:01;17.40;99.90
39621;DHT22;25309;48.686;9.170;2023-07-13T02:59:28;17.40;99.90
39621;DHT22;25309;48.686;9.170;2023-07-13T03:01:55;17.50;99.90
39621;DHT22;25309;48.686;9.170;2023-07-13T03:04:24;17.40;99.90
39621;DHT22;25309;48.686;9.170;2023-07-13T03:06:51;17.40;99.90
39621;DHT22;25309;48.686;9.170;2023-07-13T03:09:18;17.40;99.90
39621;DHT22;25309;48.686;9.170;2023-07-13T03:11:53;17.40;99.90
39621;DHT22;25309;48.686;9.170;2023-07-13T03:14:27;17.40;99.90
39621;DHT22;25309;48.686;9.170;2023-07-13T03:16:54;17.40;99.90
39621;DHT22;25309;48.686;9.170;2023-07-13T03:19:26;17.40;99.90
39621;DHT22;25309;48.686;9.170;2023-07-13T03:21:55;17.40;99.90
39621;DHT22;25309;48.686;9.170;2023-07-13T03:24:22;17.30;99.90
39621;DHT22;25309;48.686;9.170;2023-07-13T03:26:51;17.30;99.90
39621;DHT22;25309;48.686;9.170;2023-07-13T03:29:18;17.40;99.90
39621;DHT22;25309;48.686;9.170;2023-07-13T03:31:45;17.30;99.90
39621;DHT22;25309;48.686;9.170;2023-07-13T03:34:13;17.40;99.90
39621;DHT22;25309;48.686;9.170;2023-07-13T03:36:42;17.40;99.90
39621;DHT22;25309;48.686;9.170;2023-07-13T03:39:11;17.40;99.90
39621;DHT22;25309;48.686;9.170;2023-07-13T03:41:52;17.40;99.90
39621;DHT22;25309;48.686;9.170;2023-07-13T03:44:19;17.40;99.90
39621;DHT22;25309;48.686;9.170;2023-07-13T03:46:51;17.40;99.90
39621;DHT22;25309;48.686;9.170;2023-07-13T03:49:19;17.40;99.90
39621;DHT22;25309;48.686;9.170;2023-07-13T03:51:47;17.50;99.90
39621;DHT22;25309;48.686;9.170;2023-07-13T03:54:17;17.60;99.90
39621;DHT22;25309;48.686;9.170;2023-07-13T03:56:44;17.60;99.90
39621;DHT22;25309;48.686;9.170;2023-07-13T03:59:12;17.60;99.90
39621;DHT22;25309;48.686;9.170;2023-07-13T04:01:39;17.60;99.90
39621;DHT22;25309;48.686;9.170;2023-07-13T04:04:06;17.70;99.90
39621;DHT22;25309;48.686;9.170;2023-07-13T04:06:33;17.70;99.90
39621;DHT22;25309;48.686;9.170;2023-07-13T04:09:03;17.70;99.90
39621;DHT22;25309;48.686;9.170;2023-07-13T04:11:33;17.70;99.90
39621;DHT22;25309;48.686;9.170;2023-07-13T04:14:00;17.70;99.90
39621;DHT22;25309;48.686;9.170;2023-07-13T04:16:28;17.70;99.90
39621;DHT22;25309;48.686;9.170;2023-07-13T04:18:56;17.80;99.90
39621;DHT22;25309;48.686;9.170;2023-07-13T04:21:28;17.80;99.90
39621;DHT22;25309;48.686;9.170;2023-07-13T04:23:55;17.80;99.90
39621;DHT22;25309;48.686;9.170;2023-07-13T04:26:23;17.80;99.90
39621;DHT22;25309;48.686;9.170;2023-07-13T04:28:51;17.80;99.90
39621;DHT22;25309;48.686;9.170;2023-07-13T04:31:18;17.80;99.90
39621;DHT22;25309;48.686;9.170;2023-07-13T04:33:45;17.80;99.90
39621;DHT22;25309;48.686;9.170;2023-07-13T04:36:14;17.80;99.90
39621;DHT22;25309;48.686;9.170;2023-07-13T04:38:41;17.80;99.90
39621;DHT22;25309;48.686;9.170;2023-07-13T04:41:09;17.80;99.90
39621;DHT22;25309;48.686;9.170;2023-07-13T04:43:37;17.80;99.90
39621;DHT22;25309;48.686;9.170;2023-07-13T04:46:05;17.90;99.90
39621;DHT22;25309;48.686;9.170;2023-07-13T04:48:33;17.90;99.90
39621;DHT22;25309;48.686;9.170;2023-07-13T04:51:01;18.00;99.90
39621;DHT22;25309;48.686;9.170;2023-07-13T04:53:29;18.00;99.90
39621;DHT22;25309;48.686;9.170;2023-07-13T04:55:56;18.00;99.90
39621;DHT22;25309;48.686;9.170;2023-07-13T04:58:24;18.00;99.90
39621;DHT22;25309;48.686;9.170;2023-07-13T05:00:52;18.10;99.90
39621;DHT22;25309;48.686;9.170;2023-07-13T05:03:19;18.10;99.90
39621;DHT22;25309;48.686;9.170;2023-07-13T05:05:55;18.10;99.90
39621;DHT22;25309;48.686;9.170;2023-07-13T05:08:22;18.10;99.90
39621;DHT22;25309;48.686;9.170;2023-07-13T05:10:50;18.10;99.90
39621;DHT22;25309;48.686;9.170;2023-07-13T05:13:17;18.20;99.90
39621;DHT22;25309;48.686;9.170;2023-07-13T05:15:44;18.20;99.90
39621;DHT22;25309;48.686;9.170;2023-07-13T05:18:12;18.30;99.90
39621;DHT22;25309;48.686;9.170;2023-07-13T05:20:39;18.30;99.90
39621;DHT22;25309;48.686;9.170;2023-07-13T05:23:06;18.30;99.90
39621;DHT22;25309;48.686;9.170;2023-07-13T05:25:33;18.30;99.90
39621;DHT22;25309;48.686;9.170;2023-07-13T05:28:00;18.30;99.90
39621;DHT22;25309;48.686;9.170;2023-07-13T05:30:27;18.40;99.90
39621;DHT22;25309;48.686;9.170;2023-07-13T05:32:57;18.40;99.90
39621;DHT22;25309;48.686;9.170;2023-07-13T05:35:26;18.40;99.90
39621;DHT22;25309;48.686;9.170;2023-07-13T05:37:53;18.50;99.90
39621;DHT22;25309;48.686;9.170;2023-07-13T05:40:20;18.50;99.90
39621;DHT22;25309;48.686;9.170;2023-07-13T05:42:46;18.50;99.90
39621;DHT22;25309;48.686;9.170;2023-07-13T05:45:13;18.60;99.90
39621;DHT22;25309;48.686;9.170;2023-07-13T05:47:40;18.70;99.90
39621;DHT22;25309;48.686;9.170;2023-07-13T05:50:08;18.70;99.90
39621;DHT22;25309;48.686;9.170;2023-07-13T05:52:36;18.70;99.90
39621;DHT22;25309;48.686;9.170;2023-07-13T05:55:04;18.80;99.90
39621;DHT22;25309;48.686;9.170;2023-07-13T05:57:31;18.80;99.90
39621;DHT22;25309;48.686;9.170;2023-07-13T05:59:58;18.80;99.90
39621;DHT22;25309;48.686;9.170;2023-07-13T06:02:25;18.70;99.90
39621;DHT22;25309;48.686;9.170;2023-07-13T06:04:53;18.70;99.90
39621;DHT22;25309;48.686;9.170;2023-07-13T06:07:20;18.60;99.90
39621;DHT22;25309;48.686;9.170;2023-07-13T06:09:48;18.60;99.90
39621;DHT22;25309;48.686;9.170;2023-07-13T06:12:15;18.60;99.90
39621;DHT22;25309;48.686;9.170;2023-07-13T06:14:42;18.60;99.90
39621;DHT22;25309;48.686;9.170;2023-07-13T06:17:09;18.60;99.90
39621;DHT22;25309;48.686;9.170;2023-07-13T06:19:36;18.50;99.90
39621;DHT22;25309;48.686;9.170;2023-07-13T06:22:04;18.50;99.90
39621;DHT22;25309;48.686;9.170;2023-07-13T06:24:31;18.50;99.90
39621;DHT22;25309;48.686;9.170;2023-07-13T06:26:59;18.50;99.90
39621;DHT22;25309;48.686;9.170;2023-07-13T06:29:26;18.50;99.90
39621;DHT22;25309;48.686;9.170;2023-07-13T06:31:53;18.50;99.90
39621;DHT22;25309;48.686;9.170;2023-07-13T06:34:20;18.60;99.90
39621;DHT22;25309;48.686;9.170;2023-07-13T06:36:48;18.70;99.90
39621;DHT22;25309;48.686;9.170;2023-07-13T06:39:15;18.80;99.90
39621;DHT22;25309;48.686;9.170;2023-07-13T06:41:42;18.90;99.90
39621;DHT22;25309;48.686;9.170;2023-07-13T06:44:14;18.90;99.90
39621;DHT22;25309;48.686;9.170;2023-07-13T06:46:41;18.90;99.90
39621;DHT22;25309;48.686;9.170;2023-07-13T06:49:08;18.90;99.90
39621;DHT22;25309;48.686;9.170;2023-07-13T06:51:36;19.00;99.90
39621;DHT22;25309;48.686;9.170;2023-07-13T06:54:03;19.10;99.90
39621;DHT22;25309;48.686;9.170;2023-07-13T06:56:30;19.10;99.90
39621;DHT22;25309;48.686;9.170;2023-07-13T06:58:57;19.10;99.90
39621;DHT22;25309;48.686;9.170;2023-07-13T07:01:26;19.10;99.90
39621;DHT22;25309;48.686;9.170;2023-07-13T07:03:53;19.10;99.90
39621;DHT22;25309;48.686;9.170;2023-07-13T07:06:21;19.20;99.90
39621;DHT22;25309;48.686;9.170;2023-07-13T07:08:51;19.30;99.90
39621;DHT22;25309;48.686;9.170;2023-07-13T07:11:19;19.30;99.90
39621;DHT22;25309;48.686;9.170;2023-07-13T07:13:46;19.40;99.90
39621;DHT22;25309;48.686;9.170;2023-07-13T07:16:14;19.50;99.90
39621;DHT22;25309;48.686;9.170;2023-07-13T07:18:42;19.60;99.90
39621;DHT22;25309;48.686;9.170;2023-07-13T07:21:09;19.70;99.90
39621;DHT22;25309;48.686;9.170;2023-07-13T07:23:37;19.90;99.90
39621;DHT22;25309;48.686;9.170;2023-07-13T07:26:04;20.00;99.90
39621;DHT22;25309;48.686;9.170;2023-07-13T07:28:32;20.20;99.90
39621;DHT22;25309;48.686;9.170;2023-07-13T07:31:01;20.30;99.90
39621;DHT22;25309;48.686;9.170;2023-07-13T07:33:32;20.30;98.30
39621;DHT22;25309;48.686;9.170;2023-07-13T07:36:02;20.30;99.90
39621;DHT22;25309;48.686;9.170;2023-07-13T07:38:32;20.40;99.90
39621;DHT22;25309;48.686;9.170;2023-07-13T07:41:02;20.40;99.90
39621;DHT22;25309;48.686;9.170;2023-07-13T07:43:32;20.50;99.90
39621;DHT22;25309;48.686;9.170;2023-07-13T07:45:59;20.60;99.90
39621;DHT22;25309;48.686;9.170;2023-07-13T07:48:29;20.70;99.90
39621;DHT22;25309;48.686;9.170;2023-07-13T07:50:56;20.70;97.90
39621;DHT22;25309;48.686;9.170;2023-07-13T07:53:24;20.70;98.70
39621;DHT22;25309;48.686;9.170;2023-07-13T07:55:51;20.70;99.90
39621;DHT22;25309;48.686;9.170;2023-07-13T07:58:21;20.70;94.20
39621;DHT22;25309;48.686;9.170;2023-07-13T08:00:51;20.80;99.10
39621;DHT22;25309;48.686;9.170;2023-07-13T08:03:21;20.90;98.60
39621;DHT22;25309;48.686;9.170;2023-07-13T08:05:52;21.10;98.50
39621;DHT22;25309;48.686;9.170;2023-07-13T08:08:41;21.20;99.90
39621;DHT22;25309;48.686;9.170;2023-07-13T08:11:08;21.30;99.90
39621;DHT22;25309;48.686;9.170;2023-07-13T08:13:39;21.40;95.20
39621;DHT22;25309;48.686;9.170;2023-07-13T08:16:06;21.50;97.10
39621;DHT22;25309;48.686;9.170;2023-07-13T08:18:33;21.60;94.00
39621;DHT22;25309;48.686;9.170;2023-07-13T08:21:03;21.70;96.40
39621;DHT22;25309;48.686;9.170;2023-07-13T08:23:30;21.60;95.60
39621;DHT22;25309;48.686;9.170;2023-07-13T08:26:01;21.60;99.90
39621;DHT22;25309;48.686;9.170;2023-07-13T08:28:29;21.70;97.40
39621;DHT22;25309;48.686;9.170;2023-07-13T08:31:00;21.70;98.60
39621;DHT22;25309;48.686;9.170;2023-07-13T08:33:27;21.80;97.50
39621;DHT22;25309;48.686;9.170;2023-07-13T08:35:54;21.90;98.00
39621;DHT22;25309;48.686;9.170;2023-07-13T08:38:21;21.90;97.90
39621;DHT22;25309;48.686;9.170;2023-07-13T08:40:51;22.00;94.00
39621;DHT22;25309;48.686;9.170;2023-07-13T08:43:23;22.00;98.90
39621;DHT22;25309;48.686;9.170;2023-07-13T08:45:56;22.10;94.00
39621;DHT22;25309;48.686;9.170;2023-07-13T08:48:26;22.20;96.40
39621;DHT22;25309;48.686;9.170;2023-07-13T08:50:57;22.30;99.70
39621;DHT22;25309;48.686;9.170;2023-07-13T08:53:42;22.40;93.90
39621;DHT22;25309;48.686;9.170;2023-07-13T08:56:17;22.50;96.00
39621;DHT22;25309;48.686;9.170;2023-07-13T08:58:48;22.70;97.30
39621;DHT22;25309;48.686;9.170;2023-07-13T09:01:24;22.90;96.50
39621;DHT22;25309;48.686;9.170;2023-07-13T09:04:02;23.00;96.80
39621;DHT22;25309;48.686;9.170;2023-07-13T09:06:36;23.10;92.00
39621;DHT22;25309;48.686;9.170;2023-07-13T09:09:10;23.20;95.60
39621;DHT22;25309;48.686;9.170;2023-07-13T09:11:47;23.30;93.00
39621;DHT22;25309;48.686;9.170;2023-07-13T09:14:39;23.50;96.00
39621;DHT22;25309;48.686;9.170;2023-07-13T09:17:13;23.70;93.60
39621;DHT22;25309;48.686;9.170;2023-07-13T09:19:41;23.90;93.90
39621;DHT22;25309;48.686;9.170;2023-07-13T09:22:14;24.20;90.60
39621;DHT22;25309;48.686;9.170;2023-07-13T09:24:55;24.30;83.40
39621;DHT22;25309;48.686;9.170;2023-07-13T09:27:25;24.40;95.80
39621;DHT22;25309;48.686;9.170;2023-07-13T09:30:04;24.50;93.60
39621;DHT22;25309;48.686;9.170;2023-07-13T09:32:39;24.70;95.50
39621;DHT22;25309;48.686;9.170;2023-07-13T09:35:18;24.90;96.20
39621;DHT22;25309;48.686;9.170;2023-07-13T09:37:46;25.00;90.10
39621;DHT22;25309;48.686;9.170;2023-07-13T09:40:18;25.00;87.30
39621;DHT22;25309;48.686;9.170;2023-07-13T09:42:47;25.10;95.20
39621;DHT22;25309;48.686;9.170;2023-07-13T09:45:17;24.90;91.70
39621;DHT22;25309;48.686;9.170;2023-07-13T09:47:59;24.80;94.30
39621;DHT22;25309;48.686;9.170;2023-07-13T09:50:26;24.70;92.60
39621;DHT22;25309;48.686;9.170;2023-07-13T09:52:56;24.50;92.00
39621;DHT22;25309;48.686;9.170;2023-07-13T09:55:28;24.50;94.80
39621;DHT22;25309;48.686;9.170;2023-07-13T09:57:56;24.60;94.10
39621;DHT22;25309;48.686;9.170;2023-07-13T10:00:26;24.70;93.20
39621;DHT22;25309;48.686;9.170;2023-07-13T10:03:02;25.00;91.90
39621;DHT22;25309;48.686;9.170;2023-07-13T10:05:38;25.20;94.30
39621;DHT22;25309;48.686;9.170;2023-07-13T10:08:08;25.30;95.30
39621;DHT22;25309;48.686;9.170;2023-07-13T10:10:41;25.40;95.80
39621;DHT22;25309;48.686;9.170;2023-07-13T10:13:24;25.40;92.00
39621;DHT22;25309;48.686;9.170;2023-07-13T10:15:54;25.50;90.80
39621;DHT22;25309;48.686;9.170;2023-07-13T10:18:24;25.70;95.10
39621;DHT22;25309;48.686;9.170;2023-07-13T10:20:58;25.90;94.90
39621;DHT22;25309;48.686;9.170;2023-07-13T10:23:51;26.00;93.30
39621;DHT22;25309;48.686;9.170;2023-07-13T10:26:23;26.30;93.70
39621;DHT22;25309;48.686;9.170;2023-07-13T10:28:54;26.70;95.70
39621;DHT22;25309;48.686;9.170;2023-07-13T10:31:24;27.00;93.10
39621;DHT22;25309;48.686;9.170;2023-07-13T10:33:51;27.50;90.90
39621;DHT22;25309;48.686;9.170;2023-07-13T10:36:27;27.80;93.00
39621;DHT22;25309;48.686;9.170;2023-07-13T10:38:57;28.30;86.50
39621;DHT22;25309;48.686;9.170;2023-07-13T10:41:27;28.40;90.50
39621;DHT22;25309;48.686;9.170;2023-07-13T10:43:55;28.20;91.70
39621;DHT22;25309;48.686;9.170;2023-07-13T10:46:27;28.00;85.70
39621;DHT22;25309;48.686;9.170;2023-07-13T10:48:57;27.80;84.70
39621;DHT22;25309;48.686;9.170;2023-07-13T10:51:26;27.80;92.50
39621;DHT22;25309;48.686;9.170;2023-07-13T10:54:20;28.00;89.00
39621;DHT22;25309;48.686;9.170;2023-07-13T10:56:51;27.80;76.40
39621;DHT22;25309;48.686;9.170;2023-07-13T10:59:24;27.50;80.20
39621;DHT22;25309;48.686;9.170;2023-07-13T11:02:10;27.70;86.40
39621;DHT22;25309;48.686;9.170;2023-07-13T11:04:43;27.80;74.30
39621;DHT22;25309;48.686;9.170;2023-07-13T11:07:19;28.00;87.00
39621;DHT22;25309;48.686;9.170;2023-07-13T11:09:50;28.50;90.60
39621;DHT22;25309;48.686;9.170;2023-07-13T11:15:13;28.70;86.80
39621;DHT22;25309;48.686;9.170;2023-07-13T11:17:54;29.00;92.80
39621;DHT22;25309;48.686;9.170;2023-07-13T11:20:39;29.10;90.70
39621;DHT22;25309;48.686;9.170;2023-07-13T11:23:19;29.20;87.40
39621;DHT22;25309;48.686;9.170;2023-07-13T11:25:47;29.40;95.90
39621;DHT22;25309;48.686;9.170;2023-07-13T11:28:18;29.40;96.40
39621;DHT22;25309;48.686;9.170;2023-07-13T11:30:47;29.10;98.70
39621;DHT22;25309;48.686;9.170;2023-07-13T11:33:19;29.00;99.60
39621;DHT22;25309;48.686;9.170;2023-07-13T11:35:51;28.60;94.60
39621;DHT22;25309;48.686;9.170;2023-07-13T11:38:22;28.40;98.70
39621;DHT22;25309;48.686;9.170;2023-07-13T11:40:52;28.20;95.60
39621;DHT22;25309;48.686;9.170;2023-07-13T11:43:23;28.10;98.90
39621;DHT22;25309;48.686;9.170;2023-07-13T11:45:50;27.70;96.10
39621;DHT22;25309;48.686;9.170;2023-07-13T11:48:26;28.30;95.60
39621;DHT22;25309;48.686;9.170;2023-07-13T11:50:58;28.10;93.50
39621;DHT22;25309;48.686;9.170;2023-07-13T11:53:29;28.80;97.10
39621;DHT22;25309;48.686;9.170;2023-07-13T11:55:58;28.70;96.00
39621;DHT22;25309;48.686;9.170;2023-07-13T11:58:26;29.30;97.10
39621;DHT22;25309;48.686;9.170;2023-07-13T12:00:58;30.10;94.90
39621;DHT22;25309;48.686;9.170;2023-07-13T12:03:27;30.50;95.10
39621;DHT22;25309;48.686;9.170;2023-07-13T12:05:59;30.60;91.10
39621;DHT22;25309;48.686;9.170;2023-07-13T12:08:28;30.20;95.50
39621;DHT22;25309;48.686;9.170;2023-07-13T12:11:00;30.60;94.40
39621;DHT22;25309;48.686;9.170;2023-07-13T12:13:27;30.50;98.60
39621;DHT22;25309;48.686;9.170;2023-07-13T12:15:56;31.20;91.20
39621;DHT22;25309;48.686;9.170;2023-07-13T12:18:30;31.80;89.80
39621;DHT22;25309;48.686;9.170;2023-07-13T12:20:59;32.10;86.60
39621;DHT22;25309;48.686;9.170;2023-07-13T12:23:29;32.20;87.20
39621;DHT22;25309;48.686;9.170;2023-07-13T12:25:58;32.40;87.10
39621;DHT22;25309;48.686;9.170;2023-07-13T12:28:32;32.30;85.10
39621;DHT22;25309;48.686;9.170;2023-07-13T12:31:01;32.00;77.20
39621;DHT22;25309;48.686;9.170;2023-07-13T12:33:31;31.70;90.50
39621;DHT22;25309;48.686;9.170;2023-07-13T12:36:01;31.60;80.60
39621;DHT22;25309;48.686;9.170;2023-07-13T12:38:30;32.00;88.50
39621;DHT22;25309;48.686;9.170;2023-07-13T12:40:58;32.10;87.20
39621;DHT22;25309;48.686;9.170;2023-07-13T12:43:26;32.30;86.90
39621;DHT22;25309;48.686;9.170;2023-07-13T12:45:59;32.60;86.40
39621;DHT22;25309;48.686;9.170;2023-07-13T12:48:27;32.70;90.10
39621;DHT22;25309;48.686;9.170;2023-07-13T12:51:13;33.00;91.10
39621;DHT22;25309;48.686;9.170;2023-07-13T12:53:42;33.50;90.00
39621;DHT22;25309;48.686;9.170;2023-07-13T12:56:15;33.70;82.30
39621;DHT22;25309;48.686;9.170;2023-07-13T12:58:47;33.70;87.60
39621;DHT22;25309;48.686;9.170;2023-07-13T13:01:17;33.50;91.50
39621;DHT22;25309;48.686;9.170;2023-07-13T13:03:46;32.90;86.60
39621;DHT22;25309;48.686;9.170;2023-07-13T13:06:24;32.60;86.30
39621;DHT22;25309;48.686;9.170;2023-07-13T13:08:53;32.40;77.70
39621;DHT22;25309;48.686;9.170;2023-07-13T13:11:22;32.30;90.20
39621;DHT22;25309;48.686;9.170;2023-07-13T13:13:50;32.20;72.70
39621;DHT22;25309;48.686;9.170;2023-07-13T13:16:21;32.00;82.50
39621;DHT22;25309;48.686;9.170;2023-07-13T13:18:49;32.10;86.40
39621;DHT22;25309;48.686;9.170;2023-07-13T13:21:17;32.10;66.20
39621;DHT22;25309;48.686;9.170;2023-07-13T13:23:47;31.50;69.00
39621;DHT22;25309;48.686;9.170;2023-07-13T13:26:15;31.20;67.70
39621;DHT22;25309;48.686;9.170;2023-07-13T13:28:43;30.90;86.30
39621;DHT22;25309;48.686;9.170;2023-07-13T13:31:11;30.70;86.00
39621;DHT22;25309;48.686;9.170;2023-07-13T13:33:41;30.40;81.20
39621;DHT22;25309;48.686;9.170;2023-07-13T13:36:15;30.30;71.30
39621;DHT22;25309;48.686;9.170;2023-07-13T13:38:43;30.10;78.50
39621;DHT22;25309;48.686;9.170;2023-07-13T13:41:12;29.80;87.00
39621;DHT22;25309;48.686;9.170;2023-07-13T13:43:41;29.60;78.50
39621;DHT22;25309;48.686;9.170;2023-07-13T13:46:14;29.60;70.10
39621;DHT22;25309;48.686;9.170;2023-07-13T13:48:42;29.60;72.40
39621;DHT22;25309;48.686;9.170;2023-07-13T13:51:15;29.60;84.80
39621;DHT22;25309;48.686;9.170;2023-07-13T13:53:42;29.80;70.50
39621;DHT22;25309;48.686;9.170;2023-07-13T13:56:11;29.80;73.50
39621;DHT22;25309;48.686;9.170;2023-07-13T13:58:39;29.60;64.20
39621;DHT22;25309;48.686;9.170;2023-07-13T14:01:12;29.60;65.80
39621;DHT22;25309;48.686;9.170;2023-07-13T14:03:39;29.60;71.60
39621;DHT22;25309;48.686;9.170;2023-07-13T14:06:08;29.60;70.00
39621;DHT22;25309;48.686;9.170;2023-07-13T14:08:35;29.50;64.90
39621;DHT22;25309;48.686;9.170;2023-07-13T14:11:02;29.40;70.50
39621;DHT22;25309;48.686;9.170;2023-07-13T14:13:35;29.40;71.80
39621;DHT22;25309;48.686;9.170;2023-07-13T14:16:04;29.30;63.90
39621;DHT22;25309;48.686;9.170;2023-07-13T14:18:36;29.30;64.70
39621;DHT22;25309;48.686;9.170;2023-07-13T14:21:03;29.30;69.50
39621;DHT22;25309;48.686;9.170;2023-07-13T14:23:29;29.10;73.10
39621;DHT22;25309;48.686;9.170;2023-07-13T14:25:56;28.90;71.70
39621;DHT22;25309;48.686;9.170;2023-07-13T14:28:26;28.80;67.10
39621;DHT22;25309;48.686;9.170;2023-07-13T14:30:54;28.70;86.60
39621;DHT22;25309;48.686;9.170;2023-07-13T14:33:22;28.70;75.90
39621;DHT22;25309;48.686;9.170;2023-07-13T14:35:49;28.80;78.80
39621;DHT22;25309;48.686;9.170;2023-07-13T14:38:19;29.00;66.40
39621;DHT22;25309;48.686;9.170;2023-07-13T14:40:47;29.10;64.70
39621;DHT22;25309;48.686;9.170;2023-07-13T14:43:15;29.10;71.70
39621;DHT22;25309;48.686;9.170;2023-07-13T14:45:46;29.00;70.50
39621;DHT22;25309;48.686;9.170;2023-07-13T14:48:16;28.70;77.70
39621;DHT22;25309;48.686;9.170;2023-07-13T14:50:43;28.60;70.50
39621;DHT22;25309;48.686;9.170;2023-07-13T14:53:11;28.50;65.70
39621;DHT22;25309;48.686;9.170;2023-07-13T14:55:38;28.60;67.30
39621;DHT22;25309;48.686;9.170;2023-07-13T14:58:06;28.90;72.80
39621;DHT22;25309;48.686;9.170;2023-07-13T15:00:33;29.00;71.00
39621;DHT22;25309;48.686;9.170;2023-07-13T15:03:01;29.00;77.70
39621;DHT22;25309;48.686;9.170;2023-07-13T15:05:31;28.80;82.20
39621;DHT22;25309;48.686;9.170;2023-07-13T15:08:00;28.60;87.70
39621;DHT22;25309;48.686;9.170;2023-07-13T15:10:29;28.10;81.20
39621;DHT22;25309;48.686;9.170;2023-07-13T15:12:59;27.80;69.00
39621;DHT22;25309;48.686;9.170;2023-07-13T15:15:27;27.40;71.00
39621;DHT22;25309;48.686;9.170;2023-07-13T15:17:55;27.20;67.70
39621;DHT22;25309;48.686;9.170;2023-07-13T15:20:26;26.90;78.90
39621;DHT22;25309;48.686;9.170;2023-07-13T15:22:56;26.90;78.10
39621;DHT22;25309;48.686;9.170;2023-07-13T15:25:24;26.90;73.30
39621;DHT22;25309;48.686;9.170;2023-07-13T15:27:53;26.90;80.40
39621;DHT22;25309;48.686;9.170;2023-07-13T15:30:20;27.00;80.10
39621;DHT22;25309;48.686;9.170;2023-07-13T15:32:48;27.10;69.10
39621;DHT22;25309;48.686;9.170;2023-07-13T15:35:17;27.20;80.40
39621;DHT22;25309;48.686;9.170;2023-07-13T15:37:45;27.20;81.60
39621;DHT22;25309;48.686;9.170;2023-07-13T15:40:14;27.20;75.10
39621;DHT22;25309;48.686;9.170;2023-07-13T15:42:43;27.10;77.70
39621;DHT22;25309;48.686;9.170;2023-07-13T15:45:15;27.10;75.20
39621;DHT22;25309;48.686;9.170;2023-07-13T15:47:44;27.00;78.50